createdAt,value
2016-07-21T00:00:09.098Z,8.76
2016-07-21T00:01:08.426Z,8.79
2016-07-21T00:02:08.528Z,8.86
2016-07-21T00:03:09.254Z,8.85
2016-07-21T00:04:08.599Z,8.85
2016-07-21T00:05:09.431Z,8.94
2016-07-21T00:06:09.490Z,8.91
2016-07-21T00:07:08.803Z,8.91
2016-07-21T00:08:09.526Z,8.81
2016-07-21T00:09:09.547Z,8.81
2016-07-21T00:10:09.647Z,8.79
2016-07-21T00:11:09.683Z,8.79
2016-07-21T00:12:09.006Z,8.7
2016-07-21T00:13:09.746Z,8.69
2016-07-21T00:14:09.127Z,8.63
2016-07-21T00:15:10.134Z,8.78
2016-07-21T00:16:09.189Z,8.82
2016-07-21T00:17:09.949Z,8.82
2016-07-21T00:18:10.006Z,8.78
2016-07-21T00:19:09.362Z,8.78
2016-07-21T00:20:09.487Z,8.79
2016-07-21T00:21:10.149Z,8.79
2016-07-21T00:22:09.518Z,8.69
2016-07-21T00:23:09.585Z,8.69
2016-07-21T00:24:09.621Z,8.67
2016-07-21T00:25:10.399Z,8.63
2016-07-21T00:26:09.702Z,8.81
2016-07-21T00:27:09.759Z,8.79
2016-07-21T00:28:10.524Z,8.74
2016-07-21T00:29:10.578Z,8.63
2016-07-21T00:30:10.768Z,8.69
2016-07-21T00:31:10.661Z,8.64
2016-07-21T00:32:10.725Z,8.66
2016-07-21T00:33:10.097Z,8.66
2016-07-21T00:34:10.169Z,8.69
2016-07-21T00:35:09.463Z,8.67
2016-07-21T00:36:10.937Z,8.63
2016-07-21T00:37:10.980Z,8.6
2016-07-21T00:38:11.053Z,8.66
2016-07-21T00:39:11.088Z,8.76
2016-07-21T00:40:11.445Z,8.82
2016-07-21T00:41:11.518Z,8.89
2016-07-21T00:42:10.572Z,8.86
2016-07-21T00:43:11.286Z,8.74
2016-07-21T00:44:11.337Z,8.88
2016-07-21T00:45:10.833Z,8.74
2016-07-21T00:46:11.470Z,8.73
2016-07-21T00:47:11.481Z,8.73
2016-07-21T00:48:11.580Z,8.69
2016-07-21T00:49:11.628Z,8.84
2016-07-21T00:50:11.822Z,8.79
2016-07-21T00:51:11.004Z,8.76
2016-07-21T00:52:11.795Z,8.63
2016-07-21T00:53:11.101Z,8.61
2016-07-21T00:54:11.140Z,8.66
2016-07-21T00:55:12.204Z,8.64
2016-07-21T00:56:11.253Z,8.84
2016-07-21T00:57:12.012Z,8.66
2016-07-21T00:58:11.374Z,8.69
2016-07-21T00:59:12.106Z,8.78
2016-07-21T01:00:11.570Z,8.73
2016-07-21T01:01:11.524Z,8.66
2016-07-21T01:02:11.549Z,8.64
2016-07-21T01:03:11.603Z,8.66
2016-07-21T01:04:12.345Z,8.67
2016-07-21T01:05:12.042Z,8.71
2016-07-21T01:06:11.755Z,8.66
2016-07-21T01:07:11.835Z,8.61
2016-07-21T01:08:12.549Z,8.61
2016-07-21T01:09:12.624Z,8.69
2016-07-21T01:10:12.247Z,8.78
2016-07-21T01:11:12.701Z,8.73
2016-07-21T01:12:12.796Z,8.86
2016-07-21T01:13:12.845Z,8.84
2016-07-21T01:14:12.870Z,8.91
2016-07-21T01:15:12.948Z,8.84
2016-07-21T01:16:12.265Z,8.97
2016-07-21T01:17:13.009Z,8.97
2016-07-21T01:18:13.081Z,8.96
2016-07-21T01:19:12.441Z,8.97
2016-07-21T01:20:13.232Z,8.85
2016-07-21T01:21:13.297Z,8.88
2016-07-21T01:22:13.295Z,9
2016-07-21T01:23:13.343Z,8.97
2016-07-21T01:24:13.411Z,9.18
2016-07-21T01:25:13.436Z,9.18
2016-07-21T01:26:12.791Z,9.08
2016-07-21T01:27:12.864Z,9.11
2016-07-21T01:28:13.595Z,9.1
2016-07-21T01:29:13.623Z,9.14
2016-07-21T01:30:13.002Z,9.16
2016-07-21T01:31:13.740Z,9.21
2016-07-21T01:32:13.794Z,9.14
2016-07-21T01:33:13.854Z,9.14
2016-07-21T01:34:13.915Z,9.1
2016-07-21T01:35:13.276Z,9.02
2016-07-21T01:36:13.309Z,9.03
2016-07-21T01:37:13.351Z,8.94
2016-07-21T01:38:14.091Z,8.97
2016-07-21T01:39:14.155Z,8.97
2016-07-21T01:40:14.235Z,9.1
2016-07-21T01:41:13.037Z,9.1
2016-07-21T01:42:14.316Z,9.14
2016-07-21T01:43:13.659Z,8.99
2016-07-21T01:44:14.424Z,9.08
2016-07-21T01:45:13.752Z,9.11
2016-07-21T01:46:14.517Z,9.08
2016-07-21T01:47:14.559Z,9.25
2016-07-21T01:48:14.631Z,9.11
2016-07-21T01:49:14.653Z,9.08
2016-07-21T01:50:14.715Z,9.02
2016-07-21T01:51:14.774Z,9.26
2016-07-21T01:52:14.841Z,9.29
2016-07-21T01:53:14.172Z,9.32
2016-07-21T01:54:14.923Z,9.51
2016-07-21T01:55:14.302Z,9.41
2016-07-21T01:56:15.025Z,9.44
2016-07-21T01:57:15.052Z,9.36
2016-07-21T01:58:15.174Z,9.32
2016-07-21T01:59:15.166Z,9.22
2016-07-21T02:00:14.532Z,9.32
2016-07-21T02:01:14.566Z,9.5
2016-07-21T02:02:15.354Z,9.51
2016-07-21T02:03:14.709Z,9.5
2016-07-21T02:04:15.439Z,9.61
2016-07-21T02:05:15.526Z,9.74
2016-07-21T02:06:14.858Z,9.86
2016-07-21T02:07:15.608Z,9.94
2016-07-21T02:08:14.935Z,9.94
2016-07-21T02:09:14.980Z,9.83
2016-07-21T02:10:15.041Z,9.87
2016-07-21T02:11:15.798Z,9.87
2016-07-21T02:12:15.128Z,9.87
2016-07-21T02:13:15.896Z,9.91
2016-07-21T02:14:15.232Z,9.87
2016-07-21T02:15:15.981Z,9.79
2016-07-21T02:16:16.073Z,9.71
2016-07-21T02:17:16.075Z,9.73
2016-07-21T02:18:15.471Z,9.59
2016-07-21T02:19:16.201Z,9.48
2016-07-21T02:20:16.239Z,9.79
2016-07-21T02:21:16.277Z,9.69
2016-07-21T02:22:15.690Z,9.86
2016-07-21T02:23:16.398Z,9.69
2016-07-21T02:24:15.769Z,9.66
2016-07-21T02:25:16.489Z,9.87
2016-07-21T02:26:15.843Z,9.73
2016-07-21T02:27:16.610Z,9.65
2016-07-21T02:28:16.643Z,9.66
2016-07-21T02:29:16.693Z,9.74
2016-07-21T02:30:16.758Z,9.63
2016-07-21T02:31:16.836Z,9.74
2016-07-21T02:32:16.178Z,9.89
2016-07-21T02:33:16.248Z,9.84
2016-07-21T02:34:16.266Z,9.87
2016-07-21T02:35:16.329Z,9.87
2016-07-21T02:36:17.097Z,9.71
2016-07-21T02:37:17.110Z,9.65
2016-07-21T02:38:17.177Z,9.62
2016-07-21T02:39:17.225Z,9.65
2016-07-21T02:40:16.586Z,9.74
2016-07-21T02:41:17.374Z,9.69
2016-07-21T02:42:17.375Z,9.58
2016-07-21T02:43:17.449Z,9.66
2016-07-21T02:44:16.767Z,9.5
2016-07-21T02:45:17.500Z,9.46
2016-07-21T02:46:17.552Z,9.44
2016-07-21T02:47:17.625Z,9.46
2016-07-21T02:48:17.670Z,9.62
2016-07-21T02:49:17.751Z,9.66
2016-07-21T02:50:17.077Z,9.63
2016-07-21T02:51:17.838Z,9.55
2016-07-21T02:52:17.863Z,9.79
2016-07-21T02:53:17.213Z,9.84
2016-07-21T02:54:17.965Z,9.8
2016-07-21T02:55:18.062Z,9.66
2016-07-21T02:56:18.062Z,9.71
2016-07-21T02:57:17.433Z,9.77
2016-07-21T02:58:17.487Z,9.71
2016-07-21T02:59:18.234Z,9.71
2016-07-21T03:00:18.285Z,9.63
2016-07-21T03:01:18.365Z,9.47
2016-07-21T03:02:17.703Z,9.48
2016-07-21T03:03:17.747Z,9.66
2016-07-21T03:04:17.790Z,9.71
2016-07-21T03:05:18.548Z,9.84
2016-07-21T03:06:18.622Z,9.86
2016-07-21T03:07:18.623Z,9.94
2016-07-21T03:08:18.708Z,9.87
2016-07-21T03:09:18.775Z,9.91
2016-07-21T03:10:18.794Z,9.86
2016-07-21T03:11:18.845Z,9.86
2016-07-21T03:12:18.203Z,9.81
2016-07-21T03:13:18.946Z,9.81
2016-07-21T03:14:18.977Z,9.81
2016-07-21T03:15:19.044Z,9.89
2016-07-21T03:16:19.120Z,9.87
2016-07-21T03:17:19.128Z,9.81
2016-07-21T03:18:19.227Z,9.84
2016-07-21T03:19:19.227Z,9.87
2016-07-21T03:20:18.602Z,9.87
2016-07-21T03:21:19.341Z,9.91
2016-07-21T03:22:19.430Z,9.94
2016-07-21T03:23:19.480Z,9.92
2016-07-21T03:24:19.489Z,9.94
2016-07-21T03:25:18.874Z,9.95
2016-07-21T03:26:19.632Z,9.83
2016-07-21T03:27:19.663Z,9.94
2016-07-21T03:28:19.019Z,9.95
2016-07-21T03:29:19.056Z,9.91
2016-07-21T03:30:19.787Z,9.86
2016-07-21T03:31:19.174Z,9.71
2016-07-21T03:32:19.885Z,9.94
2016-07-21T03:33:19.967Z,9.98
2016-07-21T03:34:19.991Z,9.94
2016-07-21T03:35:19.350Z,9.98
2016-07-21T03:36:20.110Z,9.98
2016-07-21T03:37:19.482Z,9.99
2016-07-21T03:38:19.497Z,9.89
2016-07-21T03:39:19.588Z,9.83
2016-07-21T03:40:20.307Z,9.87
2016-07-21T03:41:20.557Z,9.91
2016-07-21T03:42:20.426Z,9.84
2016-07-21T03:43:20.445Z,9.83
2016-07-21T03:44:20.516Z,9.76
2016-07-21T03:45:20.564Z,9.62
2016-07-21T03:46:20.614Z,9.55
2016-07-21T03:47:19.980Z,9.56
2016-07-21T03:48:20.017Z,9.46
2016-07-21T03:49:20.799Z,9.56
2016-07-21T03:50:20.843Z,9.55
2016-07-21T03:51:20.865Z,9.73
2016-07-21T03:52:20.240Z,9.73
2016-07-21T03:53:20.947Z,9.65
2016-07-21T03:54:21.263Z,9.54
2016-07-21T03:55:20.363Z,9.68
2016-07-21T03:56:21.136Z,9.81
2016-07-21T03:57:21.169Z,9.87
2016-07-21T03:58:21.200Z,9.8
2016-07-21T03:59:20.572Z,9.71
2016-07-21T04:00:20.613Z,9.84
2016-07-21T04:01:21.350Z,9.74
2016-07-21T04:02:21.422Z,9.65
2016-07-21T04:03:20.811Z,9.54
2016-07-21T04:04:21.513Z,9.65
2016-07-21T04:05:20.864Z,9.79
2016-07-21T04:06:21.612Z,9.76
2016-07-21T04:07:20.994Z,9.68
2016-07-21T04:08:21.739Z,9.63
2016-07-21T04:09:21.102Z,9.63
2016-07-21T04:10:21.827Z,9.51
2016-07-21T04:11:21.890Z,9.55
2016-07-21T04:12:21.207Z,9.63
2016-07-21T04:13:21.274Z,9.65
2016-07-21T04:14:22.030Z,9.74
2016-07-21T04:15:22.126Z,9.74
2016-07-21T04:16:22.134Z,9.69
2016-07-21T04:17:22.195Z,9.59
2016-07-21T04:18:22.259Z,9.62
2016-07-21T04:19:22.298Z,9.65
2016-07-21T04:20:22.312Z,9.55
2016-07-21T04:21:22.370Z,9.62
2016-07-21T04:22:22.419Z,9.61
2016-07-21T04:23:22.501Z,9.54
2016-07-21T04:24:22.559Z,9.59
2016-07-21T04:25:21.198Z,9.54
2016-07-21T04:26:22.650Z,9.47
2016-07-21T04:27:22.006Z,9.47
2016-07-21T04:28:22.774Z,9.55
2016-07-21T04:29:22.078Z,9.47
2016-07-21T04:30:22.137Z,9.47
2016-07-21T04:31:22.881Z,9.47
2016-07-21T04:32:22.242Z,9.51
2016-07-21T04:33:23.006Z,9.47
2016-07-21T04:34:23.032Z,9.44
2016-07-21T04:35:23.092Z,9.28
2016-07-21T04:36:23.158Z,9.28
2016-07-21T04:37:23.233Z,9.34
2016-07-21T04:38:23.248Z,9.19
2016-07-21T04:39:23.305Z,8.82
2016-07-21T04:40:23.373Z,8.12
2016-07-21T04:41:23.457Z,7.67
2016-07-21T04:42:22.748Z,7.31
2016-07-21T04:43:22.842Z,7.36
2016-07-21T04:44:23.558Z,7.25
2016-07-21T04:45:23.615Z,7.42
2016-07-21T04:46:22.987Z,7.54
2016-07-21T04:47:22.995Z,7.66
2016-07-21T04:48:23.783Z,7.76
2016-07-21T04:49:23.117Z,7.85
2016-07-21T04:50:23.859Z,7.83
2016-07-21T04:51:23.250Z,7.88
2016-07-21T04:52:23.274Z,7.87
2016-07-21T04:53:23.286Z,7.94
2016-07-21T04:54:24.268Z,7.8
2016-07-21T04:55:24.108Z,7.7
2016-07-21T04:56:24.190Z,7.56
2016-07-21T04:57:23.503Z,7.57
2016-07-21T04:58:23.551Z,7.51
2016-07-21T04:59:24.317Z,7.56
2016-07-21T05:00:23.688Z,7.54
2016-07-21T05:01:23.685Z,7.45
2016-07-21T05:02:24.438Z,7.38
2016-07-21T05:03:24.519Z,7.17
2016-07-21T05:04:23.853Z,7.1
2016-07-21T05:05:24.634Z,6.8
2016-07-21T05:06:24.664Z,6.72
2016-07-21T05:07:24.720Z,6.6
2016-07-21T05:08:24.735Z,6.54
2016-07-21T05:09:24.803Z,6.45
2016-07-21T05:10:24.836Z,6.39
2016-07-21T05:11:24.922Z,6.49
2016-07-21T05:12:24.976Z,6.51
2016-07-21T05:13:24.305Z,6.44
2016-07-21T05:14:24.351Z,6.39
2016-07-21T05:15:25.312Z,6.3
2016-07-21T05:16:25.178Z,6.22
2016-07-21T05:17:24.486Z,6.26
2016-07-21T05:18:24.542Z,6.31
2016-07-21T05:19:23.887Z,6.27
2016-07-21T05:20:25.320Z,6.2
2016-07-21T05:21:24.698Z,6.28
2016-07-21T05:22:25.440Z,6.22
2016-07-21T05:23:25.458Z,6.51
2016-07-21T05:24:25.541Z,6.35
2016-07-21T05:25:24.906Z,6.42
2016-07-21T05:26:25.659Z,6.33
2016-07-21T05:27:24.967Z,6.27
2016-07-21T05:28:25.746Z,6.18
2016-07-21T05:29:25.762Z,6.46
2016-07-21T05:30:25.808Z,6.46
2016-07-21T05:31:25.878Z,6.66
2016-07-21T05:32:25.918Z,6.57
2016-07-21T05:33:24.565Z,6.51
2016-07-21T05:34:26.021Z,6.56
2016-07-21T05:35:26.098Z,6.35
2016-07-21T05:36:25.434Z,6.48
2016-07-21T05:37:26.182Z,6.51
2016-07-21T05:38:25.504Z,6.51
2016-07-21T05:39:26.264Z,6.6
2016-07-21T05:40:26.306Z,6.46
2016-07-21T05:41:26.347Z,6.46
2016-07-21T05:42:25.699Z,6.42
2016-07-21T05:43:26.452Z,6.51
2016-07-21T05:44:25.806Z,6.63
2016-07-21T05:45:26.572Z,6.51
2016-07-21T05:46:25.899Z,6.57
2016-07-21T05:47:25.947Z,6.62
2016-07-21T05:48:25.982Z,6.46
2016-07-21T05:49:26.771Z,6.42
2016-07-21T05:50:26.772Z,6.49
2016-07-21T05:51:26.820Z,6.46
2016-07-21T05:52:26.867Z,6.45
2016-07-21T05:53:26.959Z,6.44
2016-07-21T05:54:26.288Z,6.62
2016-07-21T05:55:26.336Z,6.48
2016-07-21T05:56:26.382Z,6.56
2016-07-21T05:57:27.138Z,6.45
2016-07-21T05:58:27.167Z,6.48
2016-07-21T05:59:25.827Z,6.51
2016-07-21T06:00:27.282Z,6.56
2016-07-21T06:01:27.327Z,6.66
2016-07-21T06:02:26.695Z,6.59
2016-07-21T06:03:27.445Z,6.51
2016-07-21T06:04:27.492Z,6.6
2016-07-21T06:05:27.551Z,6.59
2016-07-21T06:06:26.891Z,6.66
2016-07-21T06:07:27.496Z,6.74
2016-07-21T06:08:27.703Z,6.69
2016-07-21T06:09:26.320Z,6.7
2016-07-21T06:10:27.786Z,6.69
2016-07-21T06:11:27.830Z,6.69
2016-07-21T06:12:27.883Z,6.69
2016-07-21T06:13:27.187Z,6.74
2016-07-21T06:14:27.943Z,6.7
2016-07-21T06:15:28.020Z,6.57
2016-07-21T06:16:28.057Z,6.69
2016-07-21T06:17:28.110Z,6.66
2016-07-21T06:18:28.155Z,6.66
2016-07-21T06:19:28.223Z,6.75
2016-07-21T06:20:28.249Z,6.69
2016-07-21T06:21:28.300Z,6.67
2016-07-21T06:22:28.343Z,6.62
2016-07-21T06:23:26.991Z,6.66
2016-07-21T06:24:28.471Z,6.64
2016-07-21T06:25:28.472Z,6.7
2016-07-21T06:26:27.140Z,6.69
2016-07-21T06:27:28.616Z,6.66
2016-07-21T06:28:27.930Z,6.51
2016-07-21T06:29:28.721Z,6.59
2016-07-21T06:30:28.762Z,6.53
2016-07-21T06:31:28.100Z,6.75
2016-07-21T06:32:28.824Z,6.48
2016-07-21T06:33:28.195Z,6.48
2016-07-21T06:34:28.935Z,6.6
